Conepatus — WDF8277 — position and weather

sailwx.info

Track history (hours):
 
Tides and Currents Weather Stations Pressure Air Temp Water Temp Dewpoint Dewpoint Depression Visibility Wind Speed Wind Dir Waves Ship Positions

Conepatus

Owner: Owings, Craig M, Islamorada, FL. More information available from US FCC via Universal Licensing System and Coast Guard Vessel Documentation Center.

Last reported at 2017-Sep-14 13:30 UTC. Time now 2017-Nov-20 04:00 UTC.
Position N 39°28' W 075°58'.
Warning: this ship's position is months out of date.

Length 9 m.

Type: Pleasure craft. MMSI: 367493230.

Date/timePositionNaut miles runAvg speedWind from/ knotsBaromVisibWave heightAir tempDewpointWater temp
2017-Sep-14 13:30N 39°28' W 075°58'4 9.0
2017-Sep-14 13:01N 39°31' W 075°54'4 7.6
2017-Sep-14 12:31N 39°32' W 075°49'0 0.0
2017-Sep-13 20:43N 39°32' W 075°49'1 3.6
2017-Sep-13 20:28N 39°32' W 075°48'4 8.1
2017-Sep-13 20:00N 39°33' W 075°43'4 7.5
2017-Sep-13 19:30N 39°33' W 075°38'4 7.4
2017-Sep-13 19:01N 39°34' W 075°33'5 9.4
2017-Sep-13 18:30N 39°29' W 075°33'5 9.0
2017-Sep-13 18:00N 39°25' W 075°30'4 8.5
2017-Sep-13 17:30N 39°22' W 075°27'4 8.5
2017-Sep-13 17:00N 39°19' W 075°23'4 8.4
2017-Sep-13 16:30N 39°15' W 075°20'4 7.7
2017-Sep-13 15:59N 39°12' W 075°17'4 8.0
2017-Sep-13 15:30N 39°09' W 075°14'  
2017-Sep-09 12:48N 39°40' W 074°12'3 7.8
2017-Sep-09 12:28N 39°42' W 074°09'4 8.0
2017-Sep-09 11:59N 39°45' W 074°09'2 4.3
2017-Sep-09 11:28N 39°46' W 074°07'1 0.1
2017-Sep-08 18:24N 39°46' W 074°07'50 2.0
2017-Sep-07 17:49N 40°36' W 074°02'516.5
2017-Sep-07 17:30N 40°41' W 074°02'916.7
2017-Sep-07 16:59N 40°49' W 073°58'  
Track history (hours):
 
Tides and Currents Weather Stations Pressure Air Temp Water Temp Dewpoint Dewpoint Depression Visibility Wind Speed Wind Dir Waves Ship Positions

Conepatus

Owner: Owings, Craig M, Islamorada, FL. More information available from US FCC via Universal Licensing System and Coast Guard Vessel Documentation Center.

Last reported at 2017-Sep-14 13:30 UTC. Time now 2017-Nov-20 04:00 UTC.
Position N 39°28' W 075°58'.
Warning: this ship's position is months out of date.

Length 9 m.

Type: Pleasure craft. MMSI: 367493230.

Date/timePositionNaut miles runAvg speedWind from/ knotsBaromVisibWave heightAir tempDewpointWater temp
2017-Sep-14 13:30N 39°28' W 075°58'4 9.0
2017-Sep-14 13:01N 39°31' W 075°54'4 7.6
2017-Sep-14 12:31N 39°32' W 075°49'0 0.0
2017-Sep-13 20:43N 39°32' W 075°49'1 3.6
2017-Sep-13 20:28N 39°32' W 075°48'4 8.1
2017-Sep-13 20:00N 39°33' W 075°43'4 7.5
2017-Sep-13 19:30N 39°33' W 075°38'4 7.4
2017-Sep-13 19:01N 39°34' W 075°33'5 9.4
2017-Sep-13 18:30N 39°29' W 075°33'5 9.0
2017-Sep-13 18:00N 39°25' W 075°30'4 8.5
2017-Sep-13 17:30N 39°22' W 075°27'4 8.5
2017-Sep-13 17:00N 39°19' W 075°23'4 8.4
2017-Sep-13 16:30N 39°15' W 075°20'4 7.7
2017-Sep-13 15:59N 39°12' W 075°17'4 8.0
2017-Sep-13 15:30N 39°09' W 075°14'  
2017-Sep-09 12:48N 39°40' W 074°12'3 7.8
2017-Sep-09 12:28N 39°42' W 074°09'4 8.0
2017-Sep-09 11:59N 39°45' W 074°09'2 4.3
2017-Sep-09 11:28N 39°46' W 074°07'1 0.1
2017-Sep-08 18:24N 39°46' W 074°07'50 2.0
2017-Sep-07 17:49N 40°36' W 074°02'516.5
2017-Sep-07 17:30N 40°41' W 074°02'916.7
2017-Sep-07 16:59N 40°49' W 073°58'  

Dump ship's entire track history